Terminal Aerodrome Forecast
Issued by NWS Sterling, VA

Current Version | Previous Version | Graphics & Text | Print | Product List | Glossary On
Versions: 1 2 3 4 5 6 7 8 9 10 11 12 13 14 15 16 17 18 19 20 21 22 23 24 25
000
FTUS41 KLWX 262340
TAFIAD
TAF
KIAD 262340Z 2700/2806 22007KT P6SM SCT050 OVC060
     FM270200 VRB03KT P6SM SCT050 OVC090
     FM271600 21008KT 6SM -SHRA BKN060 BKN100
     FM280000 23005KT P6SM SCT050 BKN100=

USA.gov is the U.S. government's official web portal to all federal, state and local government web resources and services.